Time;durP1;ratioP1;P1;durP2;ratioP2;P2;SDS_P1;SDS_P2;PMS_P1;PMS_P2;Temp;Humidity;BMP_temperature;BMP_pressure;BME280_temperature;BME280_humidity;BME280_pressure;Samples;Min_cycle;Max_cycle;Signal;HPM_P1;HPM_P2
2023/11/22 00:00:39;;;;;;;0.85;0.85;;;2.40;99.90;;;;;;4427838;32;20455;-61
2023/11/22 00:03:05;;;;;;;0.50;0.50;;;2.40;99.90;;;;;;4412690;32;20087;-62
2023/11/22 00:05:30;;;;;;;0.65;0.60;;;2.50;99.90;;;;;;4429629;32;20085;-61
2023/11/22 00:07:56;;;;;;;0.47;0.47;;;2.40;99.90;;;;;;4430226;32;20568;-61
2023/11/22 00:10:23;;;;;;;0.52;0.52;;;2.40;99.90;;;;;;4428378;32;20057;-61
2023/11/22 00:12:48;;;;;;;0.50;0.50;;;2.40;99.90;;;;;;4431407;32;20057;-62
2023/11/22 00:15:17;;;;;;;0.32;0.32;;;2.40;99.90;;;;;;4427184;32;20081;-62
2023/11/22 00:17:44;;;;;;;0.30;0.30;;;2.30;99.90;;;;;;4426556;32;20069;-61
2023/11/22 00:20:10;;;;;;;0.47;0.47;;;2.30;99.90;;;;;;4431222;32;20056;-61
2023/11/22 00:22:35;;;;;;;0.43;0.43;;;2.30;99.90;;;;;;4428459;32;20617;-61
2023/11/22 00:25:01;;;;;;;0.85;0.75;;;2.30;99.90;;;;;;4425623;32;20086;-61
2023/11/22 00:27:29;;;;;;;0.40;0.40;;;2.30;99.90;;;;;;4431215;32;20072;-60
2023/11/22 00:29:55;;;;;;;0.30;0.30;;;2.30;99.90;;;;;;4431972;32;20556;-61
2023/11/22 00:32:20;;;;;;;0.30;0.30;;;2.20;99.90;;;;;;4412985;32;20065;-62
2023/11/22 00:34:47;;;;;;;0.43;0.43;;;2.20;99.90;;;;;;4425195;32;20077;-62
2023/11/22 00:37:13;;;;;;;4.95;1.70;;;2.40;99.90;;;;;;4428575;32;20538;-62
2023/11/22 00:39:38;;;;;;;0.32;0.32;;;2.50;99.90;;;;;;4426424;32;20078;-60
2023/11/22 00:42:04;;;;;;;0.35;0.35;;;2.40;99.90;;;;;;4429271;32;20139;-61
2023/11/22 00:44:30;;;;;;;0.95;0.77;;;2.50;99.90;;;;;;4428672;32;20078;-61
2023/11/22 00:46:57;;;;;;;0.90;0.90;;;2.40;99.90;;;;;;4413519;32;20115;-61
2023/11/22 00:49:23;;;;;;;1.05;0.57;;;2.50;99.90;;;;;;4429119;32;20054;-58
2023/11/22 00:51:48;;;;;;;0.60;0.60;;;2.50;99.90;;;;;;4427657;32;20082;-61
2023/11/22 00:54:15;;;;;;;0.47;0.47;;;2.50;99.90;;;;;;4429881;32;20093;-61
2023/11/22 00:56:40;;;;;;;0.57;0.57;;;2.50;99.90;;;;;;4430057;32;20080;-60
2023/11/22 00:59:06;;;;;;;0.30;0.30;;;2.40;99.90;;;;;;4432178;32;20561;-61
2023/11/22 01:01:31;;;;;;;0.50;0.50;;;2.40;99.90;;;;;;4427889;32;20070;-61
2023/11/22 01:03:57;;;;;;;0.40;0.40;;;2.50;99.90;;;;;;4425012;32;20105;-58
2023/11/22 01:06:23;;;;;;;0.60;0.60;;;2.40;99.90;;;;;;4429148;32;20121;-59
2023/11/22 01:08:48;;;;;;;0.60;0.60;;;2.40;99.90;;;;;;4426854;32;20085;-60
2023/11/22 01:11:14;;;;;;;1.02;0.93;;;2.40;99.90;;;;;;4411910;32;20131;-60
2023/11/22 01:13:41;;;;;;;1.00;0.68;;;2.40;99.90;;;;;;4431045;32;20101;-58
2023/11/22 01:16:07;;;;;;;2.30;0.98;;;2.40;99.90;;;;;;4437309;32;20092;-60
2023/11/22 01:18:33;;;;;;;0.50;0.50;;;2.30;99.90;;;;;;4432166;32;20532;-59
2023/11/22 01:20:58;;;;;;;0.73;0.73;;;2.30;99.90;;;;;;4416151;32;20086;-60
2023/11/22 01:23:24;;;;;;;0.90;0.90;;;2.30;99.90;;;;;;4414333;32;20460;-58
2023/11/22 01:25:50;;;;;;;0.52;0.52;;;2.40;99.90;;;;;;4429555;32;20057;-59
2023/11/22 01:28:17;;;;;;;0.68;0.68;;;2.40;99.90;;;;;;4426076;32;20065;-58
2023/11/22 01:30:45;;;;;;;0.55;0.55;;;2.30;99.90;;;;;;4428226;32;20065;-58
2023/11/22 01:33:11;;;;;;;0.40;0.40;;;2.20;99.90;;;;;;4427000;32;20098;-59
2023/11/22 01:35:36;;;;;;;0.30;0.30;;;2.10;99.90;;;;;;4415004;32;20069;-58
2023/11/22 01:38:04;;;;;;;1.12;0.88;;;2.00;99.90;;;;;;4418130;32;20073;-59
2023/11/22 01:40:30;;;;;;;0.30;0.30;;;2.00;99.90;;;;;;4432612;32;20117;-60
2023/11/22 01:42:55;;;;;;;0.57;0.57;;;2.00;99.90;;;;;;4429990;32;20128;-59
2023/11/22 01:45:21;;;;;;;0.70;0.70;;;1.90;99.90;;;;;;4429068;32;20077;-61
2023/11/22 01:47:46;;;;;;;0.30;0.30;;;1.90;99.90;;;;;;4428752;32;20443;-59
2023/11/22 01:50:14;;;;;;;1.55;1.27;;;1.80;99.90;;;;;;4428446;32;20061;-60
2023/11/22 01:52:40;;;;;;;2.47;1.17;;;1.80;99.90;;;;;;4408937;32;20534;-59
2023/11/22 01:55:06;;;;;;;0.85;0.85;;;1.80;99.90;;;;;;4427370;32;20069;-59
2023/11/22 01:57:33;;;;;;;0.55;0.55;;;1.70;99.90;;;;;;4431954;32;20081;-59
2023/11/22 02:00:03;;;;;;;0.55;0.55;;;1.70;99.90;;;;;;4414749;32;20077;-59
2023/11/22 02:02:29;;;;;;;3.30;1.05;;;1.70;99.90;;;;;;4424556;32;20073;-59
2023/11/22 02:04:55;;;;;;;2.28;1.40;;;1.60;99.90;;;;;;4427125;32;20153;-59
2023/11/22 02:07:20;;;;;;;1.55;1.02;;;1.50;99.90;;;;;;4439921;32;20144;-59
2023/11/22 02:09:46;;;;;;;0.30;0.30;;;1.50;99.90;;;;;;4430585;32;20089;-59
2023/11/22 02:12:12;;;;;;;1.08;1.02;;;1.50;99.90;;;;;;4432050;32;20123;-58
2023/11/22 02:14:37;;;;;;;0.40;0.40;;;1.60;99.90;;;;;;4427125;32;20073;-59
2023/11/22 02:17:03;;;;;;;0.40;0.40;;;1.60;99.90;;;;;;4417987;32;20065;-62
2023/11/22 02:19:30;;;;;;;6.45;1.37;;;1.70;99.90;;;;;;4424566;32;21296;-62
2023/11/22 02:21:55;;;;;;;0.62;0.62;;;1.60;99.90;;;;;;4429746;32;20435;-62
2023/11/22 02:24:21;;;;;;;0.43;0.43;;;1.50;99.90;;;;;;4427357;32;20053;-60
2023/11/22 02:26:47;;;;;;;0.40;0.40;;;1.60;99.90;;;;;;4430148;32;20077;-61
2023/11/22 02:29:13;;;;;;;0.40;0.40;;;1.60;99.90;;;;;;4428671;32;20556;-62
2023/11/22 02:31:41;;;;;;;0.40;0.40;;;1.50;99.90;;;;;;4413789;32;20065;-62
2023/11/22 02:34:06;;;;;;;0.70;0.70;;;1.40;99.90;;;;;;4427024;32;20069;-63
2023/11/22 02:36:32;;;;;;;0.50;0.50;;;1.50;99.90;;;;;;4427995;32;20072;-63
2023/11/22 02:38:58;;;;;;;0.40;0.40;;;1.40;99.90;;;;;;4428231;32;20069;-62
2023/11/22 02:41:25;;;;;;;0.37;0.37;;;1.40;99.90;;;;;;4429488;32;20124;-61
2023/11/22 02:43:50;;;;;;;0.65;0.65;;;1.30;99.90;;;;;;4428217;32;20097;-62
2023/11/22 02:46:16;;;;;;;0.55;0.55;;;1.30;99.90;;;;;;4426901;32;20501;-62
2023/11/22 02:48:41;;;;;;;0.50;0.50;;;1.30;99.90;;;;;;4428106;32;20097;-61
2023/11/22 02:51:07;;;;;;;0.45;0.45;;;1.30;99.90;;;;;;4406021;32;20085;-62
2023/11/22 02:53:32;;;;;;;0.30;0.30;;;1.30;99.90;;;;;;4428991;32;20066;-61
2023/11/22 02:56:00;;;;;;;0.80;0.80;;;1.30;99.90;;;;;;4432726;32;20077;-61
2023/11/22 02:58:27;;;;;;;0.40;0.40;;;1.30;99.90;;;;;;4429782;32;20076;-60
2023/11/22 03:00:54;;;;;;;0.30;0.30;;;1.30;99.90;;;;;;4427304;32;20081;-62
2023/11/22 03:03:20;;;;;;;0.30;0.30;;;1.20;99.90;;;;;;4427001;32;20088;-62
2023/11/22 03:05:45;;;;;;;0.40;0.40;;;1.20;99.90;;;;;;4427935;32;20116;-58
2023/11/22 03:08:12;;;;;;;0.90;0.77;;;1.20;99.90;;;;;;4428560;32;20049;-60
2023/11/22 03:10:38;;;;;;;0.68;0.68;;;1.20;99.90;;;;;;4429001;32;20422;-61
2023/11/22 03:13:04;;;;;;;0.77;0.77;;;1.30;99.90;;;;;;4431514;32;20061;-62
2023/11/22 03:15:29;;;;;;;0.30;0.30;;;1.20;99.90;;;;;;4430287;32;20089;-62
2023/11/22 03:17:55;;;;;;;0.35;0.35;;;1.20;99.90;;;;;;4429683;32;20065;-62
2023/11/22 03:20:21;;;;;;;0.40;0.40;;;1.10;99.90;;;;;;4427742;32;20078;-62
2023/11/22 03:22:50;;;;;;;0.40;0.40;;;1.10;99.90;;;;;;4432522;32;20076;-62
2023/11/22 03:25:15;;;;;;;0.30;0.30;;;1.10;99.90;;;;;;4423276;32;20096;-62
2023/11/22 03:27:41;;;;;;;0.40;0.40;;;1.00;99.90;;;;;;4412696;32;20090;-61
2023/11/22 03:30:10;;;;;;;0.43;0.43;;;1.10;99.90;;;;;;4412387;32;20089;-63
2023/11/22 03:32:39;;;;;;;0.43;0.43;;;1.00;99.90;;;;;;4426814;32;20073;-60
2023/11/22 03:35:06;;;;;;;0.70;0.70;;;1.10;99.90;;;;;;4427768;32;20131;-59
2023/11/22 03:37:32;;;;;;;0.45;0.45;;;1.00;99.90;;;;;;4430136;32;20119;-61
2023/11/22 03:39:57;;;;;;;0.40;0.40;;;1.00;99.90;;;;;;4427083;32;20474;-62
2023/11/22 03:42:24;;;;;;;0.37;0.37;;;1.00;99.90;;;;;;4428679;32;20069;-63
2023/11/22 03:44:50;;;;;;;0.80;0.60;;;1.00;99.90;;;;;;4430100;32;20093;-62
2023/11/22 03:47:15;;;;;;;0.30;0.30;;;1.00;99.90;;;;;;4426438;32;20068;-62
2023/11/22 03:49:42;;;;;;;0.30;0.30;;;1.00;99.90;;;;;;4429377;32;20586;-62
2023/11/22 03:52:09;;;;;;;0.40;0.40;;;1.10;99.90;;;;;;4414877;32;20104;-61
2023/11/22 03:54:35;;;;;;;14.70;1.02;;;1.00;99.90;;;;;;4427590;32;20065;-62
2023/11/22 03:57:01;;;;;;;0.50;0.50;;;1.00;99.90;;;;;;4428121;32;20386;-62
2023/11/22 03:59:26;;;;;;;0.40;0.40;;;0.90;99.90;;;;;;4412229;32;20074;-62
2023/11/22 04:01:52;;;;;;;0.30;0.30;;;0.90;99.90;;;;;;4431510;32;20098;-62
2023/11/22 04:04:17;;;;;;;0.55;0.55;;;0.90;99.90;;;;;;4430773;32;20065;-62
2023/11/22 04:06:42;;;;;;;0.30;0.30;;;0.80;99.90;;;;;;4414580;32;20601;-63
2023/11/22 04:09:08;;;;;;;0.32;0.32;;;0.80;99.90;;;;;;4415720;32;20069;-62
2023/11/22 04:11:34;;;;;;;1.55;0.82;;;0.70;99.90;;;;;;4427938;32;20101;-61
2023/11/22 04:14:00;;;;;;;5.68;1.25;;;0.60;99.90;;;;;;4414704;32;20120;-62
2023/11/22 04:16:25;;;;;;;0.50;0.50;;;0.60;99.90;;;;;;4429063;32;20129;-60
2023/11/22 04:18:51;;;;;;;0.45;0.45;;;0.60;99.90;;;;;;4427305;32;20086;-62
2023/11/22 04:21:17;;;;;;;0.73;0.73;;;0.70;99.90;;;;;;4433183;32;20081;-62
2023/11/22 04:23:42;;;;;;;0.60;0.60;;;0.70;99.90;;;;;;4413611;32;20078;-62
2023/11/22 04:26:07;;;;;;;0.40;0.40;;;0.70;99.90;;;;;;4428882;32;20073;-61
2023/11/22 04:28:33;;;;;;;0.47;0.47;;;0.70;99.90;;;;;;4429946;32;20445;-61
2023/11/22 04:30:59;;;;;;;0.35;0.35;;;0.70;99.90;;;;;;4410575;32;20057;-61
2023/11/22 04:33:24;;;;;;;0.30;0.30;;;0.80;99.90;;;;;;4430725;32;20098;-61
2023/11/22 04:35:50;;;;;;;0.50;0.50;;;0.80;99.90;;;;;;4426602;32;20123;-61
2023/11/22 04:38:16;;;;;;;0.30;0.30;;;0.80;99.90;;;;;;4414488;32;20073;-61
2023/11/22 04:40:42;;;;;;;0.60;0.60;;;0.70;99.90;;;;;;4405344;32;20490;-61
2023/11/22 04:43:08;;;;;;;0.55;0.55;;;0.50;99.90;;;;;;4427669;32;20104;-62
2023/11/22 04:45:34;;;;;;;0.50;0.50;;;0.50;99.90;;;;;;4429269;32;20115;-61
2023/11/22 04:47:59;;;;;;;0.30;0.30;;;0.60;99.90;;;;;;4407651;32;20097;-60
2023/11/22 04:50:25;;;;;;;0.35;0.35;;;0.60;99.90;;;;;;4425580;32;20078;-61
2023/11/22 04:52:51;;;;;;;0.47;0.47;;;0.70;99.90;;;;;;4429942;32;20134;-61
2023/11/22 04:55:16;;;;;;;0.30;0.30;;;0.70;99.90;;;;;;4429177;32;20068;-61
2023/11/22 04:57:42;;;;;;;0.30;0.30;;;0.60;99.90;;;;;;4427909;32;20061;-61
2023/11/22 05:02:35;;;;;;;0.40;0.40;;;0.40;99.90;;;;;;4427792;32;20136;-62
2023/11/22 05:05:01;;;;;;;0.85;0.85;;;0.50;99.90;;;;;;4431504;32;20125;-62
2023/11/22 05:07:26;;;;;;;0.40;0.40;;;0.60;99.90;;;;;;4426470;32;20061;-61
2023/11/22 05:09:52;;;;;;;1.42;1.33;;;0.60;99.90;;;;;;4427089;32;20553;-61
2023/11/22 05:12:17;;;;;;;0.35;0.35;;;0.60;99.90;;;;;;4417489;32;20082;-60
2023/11/22 05:14:43;;;;;;;0.35;0.35;;;0.60;99.90;;;;;;4429584;32;20752;-61
2023/11/22 05:17:09;;;;;;;0.73;0.73;;;0.60;99.90;;;;;;4430328;32;20136;-60
2023/11/22 05:19:34;;;;;;;0.40;0.40;;;0.60;99.90;;;;;;4430402;32;20052;-61
2023/11/22 05:22:00;;;;;;;0.70;0.70;;;0.60;99.90;;;;;;4410539;32;20120;-59
2023/11/22 05:24:26;;;;;;;0.52;0.52;;;0.60;99.90;;;;;;4431169;32;20750;-61
2023/11/22 05:26:51;;;;;;;0.50;0.50;;;0.50;99.90;;;;;;4429844;32;20085;-61
2023/11/22 05:29:17;;;;;;;0.80;0.80;;;0.50;99.90;;;;;;4430852;32;20061;-61
2023/11/22 05:31:42;;;;;;;0.32;0.32;;;0.50;99.90;;;;;;4428921;32;20065;-61
2023/11/22 05:34:08;;;;;;;0.43;0.43;;;0.40;99.90;;;;;;4431228;32;20554;-61
2023/11/22 05:36:33;;;;;;;0.40;0.40;;;0.50;99.90;;;;;;4428075;32;20077;-60
2023/11/22 05:38:59;;;;;;;0.37;0.37;;;0.50;99.90;;;;;;4432066;32;20085;-61
2023/11/22 05:41:25;;;;;;;0.75;0.75;;;0.50;99.90;;;;;;4428821;32;20132;-61
2023/11/22 05:43:52;;;;;;;0.65;0.65;;;0.50;99.90;;;;;;4416517;32;20502;-60
2023/11/22 05:46:21;;;;;;;0.30;0.30;;;0.30;99.90;;;;;;4427958;32;20082;-59
2023/11/22 05:48:48;;;;;;;0.30;0.30;;;0.30;99.90;;;;;;4430255;32;20537;-58
2023/11/22 05:51:14;;;;;;;0.50;0.50;;;0.40;99.90;;;;;;4424096;32;20490;-58
2023/11/22 05:53:39;;;;;;;2.85;1.50;;;0.40;99.90;;;;;;4431080;32;20112;-58
2023/11/22 05:56:05;;;;;;;0.40;0.40;;;0.40;99.90;;;;;;4427486;32;20121;-58
2023/11/22 05:58:30;;;;;;;0.55;0.55;;;0.40;99.90;;;;;;4425046;32;20077;-58
2023/11/22 06:00:55;;;;;;;0.45;0.45;;;0.50;99.90;;;;;;4429174;32;20128;-58
2023/11/22 06:03:21;;;;;;;1.30;1.15;;;0.50;99.90;;;;;;4429518;32;20069;-60
2023/11/22 06:05:46;;;;;;;0.40;0.40;;;0.40;99.90;;;;;;4424085;32;20437;-62
2023/11/22 06:08:12;;;;;;;0.57;0.50;;;0.50;99.90;;;;;;4426524;32;20069;-58
2023/11/22 06:10:41;;;;;;;6.10;0.95;;;0.40;99.90;;;;;;4427813;32;20081;-58
2023/11/22 06:13:06;;;;;;;0.98;0.57;;;0.40;99.90;;;;;;4419306;32;20536;-61
2023/11/22 06:15:32;;;;;;;0.55;0.55;;;0.40;99.90;;;;;;4427188;32;21018;-62
2023/11/22 06:17:57;;;;;;;0.62;0.62;;;0.50;99.90;;;;;;4433037;32;20572;-59
2023/11/22 06:20:26;;;;;;;0.30;0.30;;;0.50;99.90;;;;;;4425058;32;20065;-59
2023/11/22 06:22:52;;;;;;;1.85;0.65;;;0.40;99.90;;;;;;4421544;32;20057;-60
2023/11/22 06:25:17;;;;;;;2.10;1.75;;;0.40;99.90;;;;;;4424503;32;20061;-58
2023/11/22 06:27:43;;;;;;;0.68;0.68;;;0.40;99.90;;;;;;4419738;32;20435;-57
2023/11/22 06:30:10;;;;;;;0.57;0.57;;;0.30;99.90;;;;;;4425549;32;20080;-59
2023/11/22 06:32:35;;;;;;;0.68;0.68;;;0.40;99.90;;;;;;4422238;32;20503;-58
2023/11/22 06:35:01;;;;;;;0.75;0.75;;;0.30;99.90;;;;;;4424861;32;20143;-59
2023/11/22 06:37:27;;;;;;;0.45;0.45;;;0.30;99.90;;;;;;4424539;32;20636;-59
2023/11/22 06:39:52;;;;;;;1.02;0.82;;;0.20;99.90;;;;;;4426470;32;20403;-60
2023/11/22 06:42:19;;;;;;;0.37;0.37;;;0.10;99.90;;;;;;4426738;32;20533;-62
2023/11/22 06:44:47;;;;;;;0.40;0.40;;;0.10;99.90;;;;;;4399280;32;20128;-60
2023/11/22 06:47:13;;;;;;;0.80;0.80;;;0.20;99.90;;;;;;4426397;32;20073;-59
2023/11/22 06:49:38;;;;;;;1.00;0.98;;;0.20;99.90;;;;;;4423671;32;20416;-60
2023/11/22 06:52:04;;;;;;;0.37;0.37;;;0.20;99.90;;;;;;4416148;32;20080;-62
2023/11/22 06:54:31;;;;;;;0.50;0.50;;;0.30;99.90;;;;;;4404317;32;20081;-62
2023/11/22 06:56:56;;;;;;;0.45;0.45;;;0.30;99.90;;;;;;4414350;32;20073;-61
2023/11/22 06:59:22;;;;;;;0.77;0.68;;;0.30;99.90;;;;;;4414824;32;20457;-61
2023/11/22 07:01:47;;;;;;;2.20;1.10;;;0.20;99.90;;;;;;4420046;32;20665;-61
2023/11/22 07:04:14;;;;;;;0.40;0.40;;;0.10;99.90;;;;;;4409378;32;20326;-61
2023/11/22 07:06:39;;;;;;;0.45;0.45;;;0.00;99.90;;;;;;4415480;32;20061;-62
2023/11/22 07:09:05;;;;;;;0.55;0.55;;;0.00;99.90;;;;;;4407623;32;20568;-62
2023/11/22 07:11:31;;;;;;;0.40;0.40;;;0.10;99.90;;;;;;4388619;32;20092;-62
2023/11/22 07:13:57;;;;;;;1.30;0.60;;;0.20;99.90;;;;;;4406961;32;20115;-60
2023/11/22 07:16:24;;;;;;;2.47;1.17;;;0.20;99.90;;;;;;4403193;32;20072;-62
2023/11/22 07:18:50;;;;;;;0.30;0.30;;;0.20;99.90;;;;;;4392288;32;20089;-61
2023/11/22 07:21:16;;;;;;;0.47;0.47;;;0.40;99.90;;;;;;4410180;32;20076;-61
2023/11/22 07:23:42;;;;;;;0.70;0.70;;;0.40;99.90;;;;;;4396439;32;20540;-62
2023/11/22 07:26:08;;;;;;;0.47;0.47;;;0.50;99.90;;;;;;4400177;32;20278;-62
2023/11/22 07:28:35;;;;;;;0.32;0.32;;;0.50;99.90;;;;;;4403019;32;21386;-62
2023/11/22 07:31:01;;;;;;;0.45;0.45;;;0.50;99.90;;;;;;4384225;32;20140;-62
2023/11/22 07:33:27;;;;;;;1.15;1.05;;;0.50;99.90;;;;;;4404648;32;20490;-61
2023/11/22 07:35:53;;;;;;;0.30;0.30;;;0.60;99.90;;;;;;4401342;32;20089;-61
2023/11/22 07:38:19;;;;;;;0.40;0.40;;;0.60;99.90;;;;;;4392068;32;20169;-62
2023/11/22 07:40:45;;;;;;;0.57;0.57;;;0.70;99.90;;;;;;4407536;32;20077;-62
2023/11/22 07:43:10;;;;;;;0.80;0.77;;;0.80;99.90;;;;;;4409049;32;20098;-61
2023/11/22 07:45:37;;;;;;;0.40;0.40;;;0.80;99.90;;;;;;4406999;32;20069;-61
2023/11/22 07:48:04;;;;;;;0.40;0.40;;;0.80;99.90;;;;;;4403538;32;20899;-61
2023/11/22 07:50:29;;;;;;;0.30;0.30;;;0.70;99.90;;;;;;4383952;32;20536;-61
2023/11/22 07:52:55;;;;;;;0.47;0.47;;;0.70;99.90;;;;;;4403252;32;20148;-61
2023/11/22 07:55:22;;;;;;;0.40;0.40;;;0.80;99.90;;;;;;4403875;32;20674;-61
2023/11/22 07:57:49;;;;;;;0.30;0.30;;;0.90;99.90;;;;;;4394560;32;20102;-61
2023/11/22 08:00:19;;;;;;;0.40;0.40;;;1.10;99.90;;;;;;4395328;32;20093;-61
2023/11/22 08:02:45;;;;;;;0.40;0.40;;;1.10;99.90;;;;;;4384589;32;20569;-61
2023/11/22 08:05:12;;;;;;;0.30;0.30;;;1.20;99.90;;;;;;4392661;32;20089;-62
2023/11/22 08:07:39;;;;;;;0.40;0.40;;;1.20;99.90;;;;;;4403082;32;20089;-64
2023/11/22 08:10:09;;;;;;;0.60;0.60;;;1.30;99.90;;;;;;4387344;32;20625;-62
2023/11/22 08:12:37;;;;;;;0.40;0.40;;;1.20;99.90;;;;;;4403390;32;20922;-62
2023/11/22 08:15:03;;;;;;;0.30;0.30;;;1.30;99.90;;;;;;4377681;32;20769;-62
2023/11/22 08:17:29;;;;;;;1.95;1.05;;;1.20;99.90;;;;;;4397233;32;20053;-62
2023/11/22 08:19:55;;;;;;;0.60;0.60;;;1.30;99.90;;;;;;4406485;32;20465;-62
2023/11/22 08:22:21;;;;;;;0.50;0.50;;;1.30;99.90;;;;;;4404776;32;20110;-60
2023/11/22 08:24:47;;;;;;;0.50;0.50;;;1.30;99.90;;;;;;4382404;32;20247;-61
2023/11/22 08:27:15;;;;;;;0.40;0.40;;;1.40;99.90;;;;;;4383690;32;20375;-61
2023/11/22 08:29:40;;;;;;;1.15;0.93;;;1.40;99.90;;;;;;4408224;32;20069;-62
2023/11/22 08:32:06;;;;;;;0.30;0.30;;;1.50;99.90;;;;;;4394904;32;20450;-61
2023/11/22 08:34:32;;;;;;;0.40;0.40;;;1.50;99.90;;;;;;4397812;32;20208;-61
2023/11/22 08:36:58;;;;;;;0.82;0.82;;;1.60;99.90;;;;;;4406146;32;20065;-59
2023/11/22 08:39:24;;;;;;;0.35;0.35;;;1.70;99.90;;;;;;4387086;32;20268;-61
2023/11/22 08:41:50;;;;;;;2.35;1.12;;;1.70;99.90;;;;;;4409527;32;20105;-62
2023/11/22 08:44:16;;;;;;;0.40;0.40;;;1.80;99.90;;;;;;4406189;32;20069;-62
2023/11/22 08:46:41;;;;;;;1.75;1.25;;;1.80;99.90;;;;;;4405648;32;20085;-62
2023/11/22 08:49:06;;;;;;;1.73;1.17;;;1.90;99.90;;;;;;4395320;32;20469;-61
2023/11/22 08:51:33;;;;;;;1.12;0.68;;;2.00;99.90;;;;;;4392355;32;20114;-61
2023/11/22 08:54:00;;;;;;;0.50;0.50;;;1.90;99.90;;;;;;4389131;32;20389;-61
2023/11/22 08:56:25;;;;;;;0.50;0.50;;;2.00;99.90;;;;;;4408471;32;20664;-60
2023/11/22 08:58:51;;;;;;;0.30;0.30;;;2.10;99.90;;;;;;4404726;32;20136;-59
2023/11/22 09:01:16;;;;;;;0.52;0.52;;;2.20;99.90;;;;;;4405887;32;20089;-61
2023/11/22 09:03:43;;;;;;;0.43;0.43;;;2.10;99.90;;;;;;4404815;32;20077;-61
2023/11/22 09:06:09;;;;;;;0.50;0.50;;;2.10;99.90;;;;;;4411637;32;20069;-59
2023/11/22 09:08:35;;;;;;;0.30;0.30;;;2.00;99.90;;;;;;4404204;32;20148;-61
2023/11/22 09:11:01;;;;;;;0.60;0.60;;;2.20;99.90;;;;;;4405339;32;20116;-61
2023/11/22 09:13:26;;;;;;;0.60;0.60;;;2.20;99.90;;;;;;4411502;32;20650;-62
2023/11/22 09:15:52;;;;;;;0.80;0.68;;;2.20;99.90;;;;;;4411884;32;20081;-59
2023/11/22 09:18:17;;;;;;;3.03;1.25;;;2.40;99.90;;;;;;4405420;32;21212;-62
2023/11/22 09:20:44;;;;;;;1.37;1.25;;;2.40;99.90;;;;;;4405742;32;21377;-61
2023/11/22 09:23:09;;;;;;;0.70;0.70;;;2.40;99.90;;;;;;4409651;32;20370;-59
2023/11/22 09:25:36;;;;;;;0.90;0.82;;;2.30;99.90;;;;;;4396715;32;20104;-61
2023/11/22 09:28:01;;;;;;;4.78;0.80;;;2.40;99.90;;;;;;4386155;32;20106;-61
2023/11/22 09:30:34;;;;;;;0.40;0.40;;;2.40;99.90;;;;;;4406002;32;20073;-61
2023/11/22 09:33:02;;;;;;;0.40;0.40;;;2.70;99.90;;;;;;4399126;32;20634;-58
2023/11/22 09:35:35;;;;;;;0.85;0.80;;;2.80;99.90;;;;;;4406501;32;20137;-60
2023/11/22 09:38:02;;;;;;;0.40;0.40;;;2.80;99.90;;;;;;4405367;32;20459;-58
2023/11/22 09:40:29;;;;;;;0.40;0.40;;;2.70;99.90;;;;;;4382003;32;20180;-62
2023/11/22 09:42:55;;;;;;;0.70;0.70;;;2.80;99.90;;;;;;4387652;32;20080;-60
2023/11/22 09:45:21;;;;;;;1.15;1.05;;;2.90;99.90;;;;;;4402037;32;20173;-62
2023/11/22 09:47:47;;;;;;;0.40;0.40;;;3.00;99.90;;;;;;4402231;32;20276;-60
2023/11/22 09:50:29;;;;;;;0.50;0.50;;;3.10;99.90;;;;;;4385812;32;20101;-62
2023/11/22 09:52:58;;;;;;;0.32;0.32;;;3.10;99.90;;;;;;4405615;32;20398;-62
2023/11/22 09:55:28;;;;;;;2.15;1.05;;;2.90;99.90;;;;;;4408407;32;20143;-62
2023/11/22 09:57:55;;;;;;;0.40;0.40;;;3.10;99.90;;;;;;4390122;32;20993;-61
2023/11/22 10:00:24;;;;;;;1.87;1.58;;;3.30;99.90;;;;;;4408612;32;20089;-60
2023/11/22 10:02:50;;;;;;;1.15;0.93;;;3.30;99.90;;;;;;4399650;32;20085;-60
2023/11/22 10:05:15;;;;;;;0.50;0.50;;;3.30;99.90;;;;;;4404822;32;20122;-62
2023/11/22 10:07:41;;;;;;;1.00;0.95;;;3.20;99.90;;;;;;4403912;32;20089;-60
2023/11/22 10:10:10;;;;;;;1.02;0.90;;;3.30;99.90;;;;;;4407451;32;20070;-62
2023/11/22 10:12:39;;;;;;;0.40;0.40;;;3.30;99.90;;;;;;4402055;32;20092;-61
2023/11/22 10:15:15;;;;;;;0.70;0.70;;;3.40;99.90;;;;;;4393512;32;20113;-61
2023/11/22 10:17:47;;;;;;;3.92;1.95;;;3.40;99.90;;;;;;4399240;32;20175;-60
2023/11/22 10:20:13;;;;;;;0.50;0.50;;;3.60;99.90;;;;;;4393708;32;20077;-61
2023/11/22 10:22:47;;;;;;;5.37;0.95;;;3.70;99.90;;;;;;4399069;32;20502;-59
2023/11/22 10:25:14;;;;;;;0.40;0.40;;;3.70;99.90;;;;;;4400102;32;20086;-61
2023/11/22 10:27:40;;;;;;;0.50;0.50;;;3.70;99.90;;;;;;4384230;32;20923;-60
2023/11/22 10:30:09;;;;;;;0.43;0.43;;;3.80;99.90;;;;;;4406753;32;20139;-61
2023/11/22 10:32:37;;;;;;;0.40;0.40;;;3.90;99.90;;;;;;4402279;32;20600;-62
2023/11/22 10:35:04;;;;;;;0.68;0.68;;;3.80;99.90;;;;;;4401694;32;20658;-63
2023/11/22 10:37:29;;;;;;;1.45;1.00;;;3.70;99.90;;;;;;4403807;32;20121;-62
2023/11/22 10:39:55;;;;;;;0.35;0.35;;;3.70;99.90;;;;;;4381328;32;20097;-61
2023/11/22 10:42:21;;;;;;;0.93;0.93;;;3.60;99.90;;;;;;4401735;32;21416;-63
2023/11/22 10:44:48;;;;;;;2.72;0.50;;;3.60;99.90;;;;;;4392479;32;20332;-60
2023/11/22 10:47:17;;;;;;;2.03;0.85;;;3.70;99.90;;;;;;4382218;32;20098;-62
2023/11/22 10:49:43;;;;;;;0.40;0.40;;;3.80;99.90;;;;;;4398986;32;20109;-62
2023/11/22 10:52:13;;;;;;;0.40;0.40;;;3.70;99.90;;;;;;4379878;32;20102;-62
2023/11/22 10:54:44;;;;;;;5.82;1.37;;;3.70;99.90;;;;;;4388793;32;20093;-61
2023/11/22 10:57:12;;;;;;;0.90;0.88;;;3.80;99.90;;;;;;4403493;32;20210;-63
2023/11/22 10:59:40;;;;;;;0.32;0.32;;;3.90;99.90;;;;;;4379933;32;20109;-63
2023/11/22 11:02:12;;;;;;;0.40;0.40;;;4.00;99.90;;;;;;4401974;32;20106;-63
2023/11/22 11:04:51;;;;;;;0.50;0.50;;;4.10;99.90;;;;;;4380311;32;20209;-63
2023/11/22 11:07:22;;;;;;;0.30;0.30;;;3.90;99.90;;;;;;4392969;32;21390;-61
2023/11/22 11:09:50;;;;;;;0.30;0.30;;;3.90;99.90;;;;;;4395788;32;20205;-62
2023/11/22 11:12:17;;;;;;;0.40;0.40;;;4.00;99.90;;;;;;4385313;32;20077;-63
2023/11/22 11:14:46;;;;;;;0.75;0.75;;;4.10;99.90;;;;;;4402259;32;20458;-63
2023/11/22 11:17:13;;;;;;;0.30;0.30;;;4.20;99.90;;;;;;4405483;32;20497;-59
2023/11/22 11:19:38;;;;;;;0.55;0.55;;;4.60;99.90;;;;;;4380114;32;20077;-63
2023/11/22 11:22:09;;;;;;;0.50;0.50;;;4.60;99.90;;;;;;4387907;32;21829;-61
2023/11/22 11:24:38;;;;;;;;;;;4.60;99.90;;;;;;4401977;32;20135;-64
2023/11/22 11:27:04;;;;;;;0.40;0.40;;;4.80;99.90;;;;;;4398179;32;20106;-59
2023/11/22 11:29:31;;;;;;;0.98;0.90;;;4.70;99.90;;;;;;4401272;32;20065;-62
2023/11/22 11:31:57;;;;;;;0.50;0.50;;;4.80;99.90;;;;;;4407063;32;20122;-63
2023/11/22 11:34:23;;;;;;;0.30;0.30;;;4.90;99.90;;;;;;4401246;32;20140;-62
2023/11/22 11:36:54;;;;;;;0.35;0.35;;;4.90;99.90;;;;;;4405928;32;20090;-63
2023/11/22 11:39:28;;;;;;;0.37;0.37;;;4.90;99.90;;;;;;4400619;32;20120;-63
2023/11/22 11:42:08;;;;;;;1.50;1.12;;;5.10;99.90;;;;;;4406818;32;20097;-63
2023/11/22 11:44:33;;;;;;;0.93;0.85;;;5.50;99.90;;;;;;4406345;32;20106;-63
2023/11/22 11:47:08;;;;;;;0.40;0.40;;;5.70;99.90;;;;;;4412207;32;20686;-61
2023/11/22 11:49:36;;;;;;;0.30;0.30;;;6.00;99.90;;;;;;4403868;32;100104;-61
2023/11/22 11:52:03;;;;;;;0.80;0.65;;;5.90;99.90;;;;;;4396869;32;20124;-62
2023/11/22 11:54:29;;;;;;;0.40;0.40;;;5.70;99.90;;;;;;4393581;32;20164;-62
2023/11/22 11:56:59;;;;;;;0.68;0.60;;;6.00;99.90;;;;;;4395764;32;20813;-62
2023/11/22 11:59:25;;;;;;;1.08;0.77;;;6.60;99.90;;;;;;4400134;32;20097;-62
2023/11/22 12:01:57;;;;;;;2.33;0.80;;;6.90;99.90;;;;;;4401212;32;20105;-61
2023/11/22 12:04:23;;;;;;;1.75;0.73;;;7.20;99.90;;;;;;4404494;32;20072;-62
2023/11/22 12:06:51;;;;;;;1.60;0.85;;;6.90;99.90;;;;;;4398008;32;20143;-62
2023/11/22 12:09:24;;;;;;;0.43;0.43;;;6.80;99.90;;;;;;4404303;32;20415;-62
2023/11/22 12:11:50;;;;;;;0.43;0.43;;;6.80;99.90;;;;;;4389296;32;20525;-61
2023/11/22 12:14:15;;;;;;;0.40;0.40;;;6.60;99.90;;;;;;4399797;32;20104;-63
2023/11/22 12:16:42;;;;;;;1.17;0.80;;;6.70;99.90;;;;;;4398039;32;20090;-63
2023/11/22 12:19:11;;;;;;;0.57;0.25;;;6.90;99.90;;;;;;4397702;32;20478;-63
2023/11/22 12:21:37;;;;;;;1.95;0.90;;;7.00;99.90;;;;;;4392968;32;20431;-62
2023/11/22 12:24:06;;;;;;;0.30;0.30;;;6.90;99.90;;;;;;4401600;32;20560;-61
2023/11/22 12:26:34;;;;;;;0.60;0.60;;;6.70;99.90;;;;;;4402694;32;20073;-59
2023/11/22 12:28:59;;;;;;;0.90;0.73;;;6.60;99.90;;;;;;4398267;32;21036;-62
2023/11/22 12:31:29;;;;;;;0.62;0.62;;;6.60;99.90;;;;;;4396999;32;20875;-62
2023/11/22 12:33:56;;;;;;;0.50;0.50;;;6.50;99.90;;;;;;4398556;32;20735;-61
2023/11/22 12:36:22;;;;;;;0.40;0.40;;;6.30;99.90;;;;;;4405192;32;20207;-62
2023/11/22 12:38:47;;;;;;;2.15;0.62;;;5.80;99.90;;;;;;4391815;32;20085;-59
2023/11/22 12:41:14;;;;;;;1.25;1.15;;;5.90;99.90;;;;;;4386044;32;20622;-62
2023/11/22 12:43:40;;;;;;;0.37;0.37;;;6.20;99.90;;;;;;4393750;32;20349;-62
2023/11/22 12:46:07;;;;;;;0.40;0.40;;;5.80;99.90;;;;;;4396178;32;21734;-62
2023/11/22 12:48:33;;;;;;;0.30;0.30;;;5.50;99.90;;;;;;4401099;32;20142;-62
2023/11/22 12:50:59;;;;;;;0.40;0.40;;;5.50;99.90;;;;;;4398047;32;20101;-63
2023/11/22 12:53:27;;;;;;;0.40;0.40;;;5.60;99.90;;;;;;4401696;32;20737;-63
2023/11/22 12:55:54;;;;;;;0.50;0.50;;;5.70;99.90;;;;;;4407558;32;20094;-62